sensor_id;sensor_type;location;lat;lon;timestamp;pressure;altitude;pressure_sealevel;temperature;humidity
75555;BME280;66087;53.126;17.960;2024-03-08T00:00:01;101823.75;;;-0.72;69.90
75555;BME280;66087;53.126;17.960;2024-03-08T00:02:58;101825.08;;;-0.70;70.12
75555;BME280;66087;53.126;17.960;2024-03-08T00:05:28;101822.17;;;-0.68;70.01
75555;BME280;66087;53.126;17.960;2024-03-08T00:07:55;101818.15;;;-0.68;70.35
75555;BME280;66087;53.126;17.960;2024-03-08T00:10:22;101816.70;;;-0.70;71.40
75555;BME280;66087;53.126;17.960;2024-03-08T00:12:49;101815.73;;;-0.74;71.05
75555;BME280;66087;53.126;17.960;2024-03-08T00:15:17;101814.52;;;-0.75;70.35
75555;BME280;66087;53.126;17.960;2024-03-08T00:17:44;101816.84;;;-0.74;70.98
75555;BME280;66087;53.126;17.960;2024-03-08T00:20:11;101814.55;;;-0.76;71.65
75555;BME280;66087;53.126;17.960;2024-03-08T00:22:40;101813.11;;;-0.78;72.43
75555;BME280;66087;53.126;17.960;2024-03-08T00:25:08;101816.21;;;-0.80;72.40
75555;BME280;66087;53.126;17.960;2024-03-08T00:27:36;101804.69;;;-0.92;72.82
75555;BME280;66087;53.126;17.960;2024-03-08T00:30:03;101815.89;;;-0.85;72.47
75555;BME280;66087;53.126;17.960;2024-03-08T00:32:30;101817.88;;;-0.88;73.50
75555;BME280;66087;53.126;17.960;2024-03-08T00:34:58;101814.50;;;-0.91;73.49
75555;BME280;66087;53.126;17.960;2024-03-08T00:37:25;101811.69;;;-0.92;74.10
75555;BME280;66087;53.126;17.960;2024-03-08T00:39:52;101811.05;;;-0.94;73.99
75555;BME280;66087;53.126;17.960;2024-03-08T00:42:20;101809.93;;;-0.97;74.48
75555;BME280;66087;53.126;17.960;2024-03-08T00:44:48;101806.98;;;-0.99;75.01
75555;BME280;66087;53.126;17.960;2024-03-08T00:47:17;101809.40;;;-1.02;74.73
75555;BME280;66087;53.126;17.960;2024-03-08T00:49:44;101808.90;;;-1.04;74.72
75555;BME280;66087;53.126;17.960;2024-03-08T00:52:11;101805.09;;;-1.05;74.08
75555;BME280;66087;53.126;17.960;2024-03-08T00:54:37;101805.48;;;-1.06;73.44
75555;BME280;66087;53.126;17.960;2024-03-08T00:57:04;101806.64;;;-1.06;73.71
75555;BME280;66087;53.126;17.960;2024-03-08T00:59:33;101803.48;;;-1.04;73.77
75555;BME280;66087;53.126;17.960;2024-03-08T01:02:02;101803.10;;;-1.04;73.24
75555;BME280;66087;53.126;17.960;2024-03-08T01:04:29;101802.13;;;-1.04;73.13
75555;BME280;66087;53.126;17.960;2024-03-08T01:06:56;101795.63;;;-1.02;72.74
75555;BME280;66087;53.126;17.960;2024-03-08T01:09:25;101796.17;;;-0.98;72.24
75555;BME280;66087;53.126;17.960;2024-03-08T01:11:54;101794.59;;;-0.94;71.97
75555;BME280;66087;53.126;17.960;2024-03-08T01:14:22;101793.96;;;-0.90;71.96
75555;BME280;66087;53.126;17.960;2024-03-08T01:16:49;101788.88;;;-0.87;71.85
75555;BME280;66087;53.126;17.960;2024-03-08T01:19:17;101791.39;;;-0.85;71.81
75555;BME280;66087;53.126;17.960;2024-03-08T01:21:44;101784.91;;;-0.85;72.29
75555;BME280;66087;53.126;17.960;2024-03-08T01:24:11;101781.08;;;-0.90;72.12
75555;BME280;66087;53.126;17.960;2024-03-08T01:26:38;101780.27;;;-0.94;71.65
75555;BME280;66087;53.126;17.960;2024-03-08T01:29:05;101781.91;;;-0.98;72.38
75555;BME280;66087;53.126;17.960;2024-03-08T01:31:32;101778.92;;;-1.02;72.37
75555;BME280;66087;53.126;17.960;2024-03-08T01:33:59;101778.56;;;-1.08;73.00
75555;BME280;66087;53.126;17.960;2024-03-08T01:36:26;101773.30;;;-1.11;72.84
75555;BME280;66087;53.126;17.960;2024-03-08T01:38:52;101772.95;;;-1.10;72.41
75555;BME280;66087;53.126;17.960;2024-03-08T01:41:20;101772.09;;;-1.09;72.67
75555;BME280;66087;53.126;17.960;2024-03-08T01:43:47;101773.02;;;-1.10;72.61
75555;BME280;66087;53.126;17.960;2024-03-08T01:46:18;101772.00;;;-1.12;72.76
75555;BME280;66087;53.126;17.960;2024-03-08T01:48:45;101768.33;;;-1.15;72.60
75555;BME280;66087;53.126;17.960;2024-03-08T01:51:13;101767.75;;;-1.20;73.23
75555;BME280;66087;53.126;17.960;2024-03-08T01:53:46;101767.15;;;-1.25;73.40
75555;BME280;66087;53.126;17.960;2024-03-08T01:56:14;101765.08;;;-1.27;73.69
75555;BME280;66087;53.126;17.960;2024-03-08T01:58:41;101763.41;;;-1.32;73.47
75555;BME280;66087;53.126;17.960;2024-03-08T02:01:12;101759.95;;;-1.29;72.96
75555;BME280;66087;53.126;17.960;2024-03-08T02:03:41;101756.37;;;-1.27;72.60
75555;BME280;66087;53.126;17.960;2024-03-08T02:06:12;101756.45;;;-1.28;73.28
75555;BME280;66087;53.126;17.960;2024-03-08T02:08:42;101748.38;;;-1.37;73.47
75555;BME280;66087;53.126;17.960;2024-03-08T02:11:12;101754.80;;;-1.35;73.70
75555;BME280;66087;53.126;17.960;2024-03-08T02:13:39;101756.09;;;-1.40;74.12
75555;BME280;66087;53.126;17.960;2024-03-08T02:16:06;101751.46;;;-1.46;73.84
75555;BME280;66087;53.126;17.960;2024-03-08T02:18:35;101751.91;;;-1.49;74.26
75555;BME280;66087;53.126;17.960;2024-03-08T02:21:03;101747.31;;;-1.54;74.92
75555;BME280;66087;53.126;17.960;2024-03-08T02:23:30;101744.34;;;-1.57;75.49
75555;BME280;66087;53.126;17.960;2024-03-08T02:25:57;101744.80;;;-1.58;75.16
75555;BME280;66087;53.126;17.960;2024-03-08T02:28:24;101743.26;;;-1.59;74.72
75555;BME280;66087;53.126;17.960;2024-03-08T02:30:54;101738.10;;;-1.59;75.35
75555;BME280;66087;53.126;17.960;2024-03-08T02:33:23;101740.77;;;-1.62;75.47
75555;BME280;66087;53.126;17.960;2024-03-08T02:35:50;101735.75;;;-1.64;75.52
75555;BME280;66087;53.126;17.960;2024-03-08T02:38:19;101737.02;;;-1.65;76.07
75555;BME280;66087;53.126;17.960;2024-03-08T02:40:49;101737.17;;;-1.65;75.94
75555;BME280;66087;53.126;17.960;2024-03-08T02:43:17;101732.75;;;-1.65;75.77
75555;BME280;66087;53.126;17.960;2024-03-08T02:45:44;101734.19;;;-1.66;75.59
75555;BME280;66087;53.126;17.960;2024-03-08T02:48:13;101736.77;;;-1.67;76.00
75555;BME280;66087;53.126;17.960;2024-03-08T02:50:42;101737.30;;;-1.67;75.77
75555;BME280;66087;53.126;17.960;2024-03-08T02:53:12;101738.38;;;-1.67;75.89
75555;BME280;66087;53.126;17.960;2024-03-08T02:55:40;101738.36;;;-1.69;75.84
75555;BME280;66087;53.126;17.960;2024-03-08T02:58:08;101737.73;;;-1.69;76.11
75555;BME280;66087;53.126;17.960;2024-03-08T03:00:37;101735.51;;;-1.70;75.85
75555;BME280;66087;53.126;17.960;2024-03-08T03:03:05;101734.17;;;-1.70;76.00
75555;BME280;66087;53.126;17.960;2024-03-08T03:05:33;101731.94;;;-1.70;76.32
75555;BME280;66087;53.126;17.960;2024-03-08T03:08:00;101725.80;;;-1.71;76.15
75555;BME280;66087;53.126;17.960;2024-03-08T03:10:27;101728.23;;;-1.72;76.10
75555;BME280;66087;53.126;17.960;2024-03-08T03:12:54;101727.16;;;-1.74;77.11
75555;BME280;66087;53.126;17.960;2024-03-08T03:15:23;101724.45;;;-1.75;76.80
75555;BME280;66087;53.126;17.960;2024-03-08T03:17:51;101721.85;;;-1.75;76.71
75555;BME280;66087;53.126;17.960;2024-03-08T03:20:18;101723.66;;;-1.75;76.69
75555;BME280;66087;53.126;17.960;2024-03-08T03:22:53;101718.43;;;-1.75;76.73
75555;BME280;66087;53.126;17.960;2024-03-08T03:25:20;101716.16;;;-1.79;76.38
75555;BME280;66087;53.126;17.960;2024-03-08T03:27:52;101715.30;;;-1.83;76.43
75555;BME280;66087;53.126;17.960;2024-03-08T03:30:24;101716.45;;;-1.87;76.84
75555;BME280;66087;53.126;17.960;2024-03-08T03:32:53;101717.29;;;-1.90;76.42
75555;BME280;66087;53.126;17.960;2024-03-08T03:35:23;101719.25;;;-1.93;76.16
75555;BME280;66087;53.126;17.960;2024-03-08T03:37:51;101718.69;;;-1.96;76.65
75555;BME280;66087;53.126;17.960;2024-03-08T03:40:28;101720.15;;;-1.98;76.49
75555;BME280;66087;53.126;17.960;2024-03-08T03:42:56;101719.09;;;-2.01;76.82
75555;BME280;66087;53.126;17.960;2024-03-08T03:45:24;101721.27;;;-2.01;76.33
75555;BME280;66087;53.126;17.960;2024-03-08T03:47:51;101716.81;;;-2.02;76.90
75555;BME280;66087;53.126;17.960;2024-03-08T03:50:19;101713.67;;;-2.02;76.68
75555;BME280;66087;53.126;17.960;2024-03-08T03:52:46;101715.29;;;-2.01;77.24
75555;BME280;66087;53.126;17.960;2024-03-08T03:55:15;101713.85;;;-1.97;78.16
75555;BME280;66087;53.126;17.960;2024-03-08T03:57:41;101712.85;;;-1.99;78.16
75555;BME280;66087;53.126;17.960;2024-03-08T04:00:08;101712.79;;;-2.00;78.30
75555;BME280;66087;53.126;17.960;2024-03-08T04:02:41;101712.35;;;-2.03;78.75
75555;BME280;66087;53.126;17.960;2024-03-08T04:05:09;101710.30;;;-2.04;78.87
75555;BME280;66087;53.126;17.960;2024-03-08T04:07:38;101712.84;;;-2.04;79.84
75555;BME280;66087;53.126;17.960;2024-03-08T04:10:07;101704.86;;;-2.05;80.03
75555;BME280;66087;53.126;17.960;2024-03-08T04:12:35;101707.58;;;-1.99;79.78
75555;BME280;66087;53.126;17.960;2024-03-08T04:15:02;101710.22;;;-1.97;79.18
75555;BME280;66087;53.126;17.960;2024-03-08T04:17:29;101704.23;;;-1.94;78.79
75555;BME280;66087;53.126;17.960;2024-03-08T04:19:56;101703.38;;;-1.91;78.47
75555;BME280;66087;53.126;17.960;2024-03-08T04:22:23;101703.27;;;-1.91;78.29
75555;BME280;66087;53.126;17.960;2024-03-08T04:24:50;101704.59;;;-1.88;78.32
75555;BME280;66087;53.126;17.960;2024-03-08T04:27:18;101706.07;;;-1.88;78.22
75555;BME280;66087;53.126;17.960;2024-03-08T04:29:45;101702.09;;;-1.91;78.22
75555;BME280;66087;53.126;17.960;2024-03-08T04:32:13;101702.62;;;-1.91;78.02
75555;BME280;66087;53.126;17.960;2024-03-08T04:34:40;101702.57;;;-1.93;78.53
75555;BME280;66087;53.126;17.960;2024-03-08T04:37:07;101701.63;;;-1.97;78.18
75555;BME280;66087;53.126;17.960;2024-03-08T04:39:37;101696.71;;;-1.99;78.26
75555;BME280;66087;53.126;17.960;2024-03-08T04:42:04;101699.84;;;-2.01;78.23
75555;BME280;66087;53.126;17.960;2024-03-08T04:44:37;101698.31;;;-2.02;78.65
75555;BME280;66087;53.126;17.960;2024-03-08T04:47:04;101696.76;;;-2.04;78.68
75555;BME280;66087;53.126;17.960;2024-03-08T04:49:32;101699.88;;;-2.05;78.46
75555;BME280;66087;53.126;17.960;2024-03-08T04:52:03;101694.67;;;-2.09;78.36
75555;BME280;66087;53.126;17.960;2024-03-08T04:54:30;101695.35;;;-2.13;78.19
75555;BME280;66087;53.126;17.960;2024-03-08T04:56:57;101693.53;;;-2.13;78.36
75555;BME280;66087;53.126;17.960;2024-03-08T04:59:27;101688.63;;;-2.13;78.28
75555;BME280;66087;53.126;17.960;2024-03-08T05:01:54;101690.81;;;-2.13;78.55
75555;BME280;66087;53.126;17.960;2024-03-08T05:04:21;101691.23;;;-2.14;78.62
75555;BME280;66087;53.126;17.960;2024-03-08T05:06:48;101692.20;;;-2.16;78.53
75555;BME280;66087;53.126;17.960;2024-03-08T05:09:16;101689.27;;;-2.18;78.27
75555;BME280;66087;53.126;17.960;2024-03-08T05:11:44;101694.19;;;-2.19;78.07
75555;BME280;66087;53.126;17.960;2024-03-08T05:14:11;101691.64;;;-2.19;77.99
75555;BME280;66087;53.126;17.960;2024-03-08T05:16:44;101691.44;;;-2.20;78.25
75555;BME280;66087;53.126;17.960;2024-03-08T05:19:16;101692.21;;;-2.21;78.15
75555;BME280;66087;53.126;17.960;2024-03-08T05:21:44;101692.26;;;-2.23;78.80
75555;BME280;66087;53.126;17.960;2024-03-08T05:24:11;101691.67;;;-2.26;79.13
75555;BME280;66087;53.126;17.960;2024-03-08T05:26:39;101693.66;;;-2.27;78.85
75555;BME280;66087;53.126;17.960;2024-03-08T05:29:06;101694.16;;;-2.28;78.75
75555;BME280;66087;53.126;17.960;2024-03-08T05:31:39;101691.46;;;-2.21;78.44
75555;BME280;66087;53.126;17.960;2024-03-08T05:34:11;101692.39;;;-2.14;78.77
75555;BME280;66087;53.126;17.960;2024-03-08T05:36:41;101691.45;;;-2.10;78.41
75555;BME280;66087;53.126;17.960;2024-03-08T05:39:11;101690.52;;;-2.09;78.51
75555;BME280;66087;53.126;17.960;2024-03-08T05:41:39;101690.90;;;-2.09;78.51
75555;BME280;66087;53.126;17.960;2024-03-08T05:44:07;101691.89;;;-2.08;78.26
75555;BME280;66087;53.126;17.960;2024-03-08T05:46:35;101692.48;;;-2.03;78.17
75555;BME280;66087;53.126;17.960;2024-03-08T05:49:04;101691.98;;;-1.95;78.10
75555;BME280;66087;53.126;17.960;2024-03-08T05:51:33;101691.02;;;-1.86;78.03
75555;BME280;66087;53.126;17.960;2024-03-08T05:54:07;101690.59;;;-1.81;78.02
75555;BME280;66087;53.126;17.960;2024-03-08T05:56:39;101689.55;;;-1.71;78.03
75555;BME280;66087;53.126;17.960;2024-03-08T05:59:11;101691.82;;;-1.60;77.80
75555;BME280;66087;53.126;17.960;2024-03-08T06:01:38;101691.89;;;-1.52;77.50
75555;BME280;66087;53.126;17.960;2024-03-08T06:04:07;101694.27;;;-1.45;77.64
75555;BME280;66087;53.126;17.960;2024-03-08T06:06:36;101695.45;;;-1.41;77.67
75555;BME280;66087;53.126;17.960;2024-03-08T06:09:04;101692.76;;;-1.36;77.54
75555;BME280;66087;53.126;17.960;2024-03-08T06:11:38;101693.69;;;-1.30;77.25
75555;BME280;66087;53.126;17.960;2024-03-08T06:14:05;101690.91;;;-1.21;77.18
75555;BME280;66087;53.126;17.960;2024-03-08T06:16:32;101694.69;;;-1.12;76.98
75555;BME280;66087;53.126;17.960;2024-03-08T06:19:01;101699.41;;;-1.04;76.96
75555;BME280;66087;53.126;17.960;2024-03-08T06:21:29;101697.48;;;-0.99;76.50
75555;BME280;66087;53.126;17.960;2024-03-08T06:23:56;101698.13;;;-1.00;76.81
75555;BME280;66087;53.126;17.960;2024-03-08T06:26:24;101696.27;;;-1.01;76.69
75555;BME280;66087;53.126;17.960;2024-03-08T06:28:52;101698.10;;;-1.01;76.76
75555;BME280;66087;53.126;17.960;2024-03-08T06:31:19;101697.04;;;-1.00;76.68
75555;BME280;66087;53.126;17.960;2024-03-08T06:33:47;101695.70;;;-1.03;77.15
75555;BME280;66087;53.126;17.960;2024-03-08T06:36:19;101695.98;;;-1.06;77.30
75555;BME280;66087;53.126;17.960;2024-03-08T06:38:50;101692.52;;;-1.08;77.52
75555;BME280;66087;53.126;17.960;2024-03-08T06:41:17;101693.53;;;-1.06;78.03
75555;BME280;66087;53.126;17.960;2024-03-08T06:43:45;101692.88;;;-1.07;78.44
75555;BME280;66087;53.126;17.960;2024-03-08T06:46:15;101692.62;;;-1.08;78.60
75555;BME280;66087;53.126;17.960;2024-03-08T06:48:47;101694.63;;;-1.03;78.40
75555;BME280;66087;53.126;17.960;2024-03-08T06:51:15;101692.23;;;-0.94;78.29
75555;BME280;66087;53.126;17.960;2024-03-08T06:53:42;101696.38;;;-0.86;77.99
75555;BME280;66087;53.126;17.960;2024-03-08T06:56:10;101694.30;;;-0.79;78.27
75555;BME280;66087;53.126;17.960;2024-03-08T06:58:37;101691.16;;;-0.77;78.57
75555;BME280;66087;53.126;17.960;2024-03-08T07:01:04;101694.71;;;-0.77;79.32
75555;BME280;66087;53.126;17.960;2024-03-08T07:03:34;101695.08;;;-0.74;78.83
75555;BME280;66087;53.126;17.960;2024-03-08T07:06:02;101698.88;;;-0.68;78.41
75555;BME280;66087;53.126;17.960;2024-03-08T07:08:29;101699.57;;;-0.62;78.46
75555;BME280;66087;53.126;17.960;2024-03-08T07:10:59;101701.42;;;-0.54;78.57
75555;BME280;66087;53.126;17.960;2024-03-08T07:13:26;101701.17;;;-0.48;78.84
75555;BME280;66087;53.126;17.960;2024-03-08T07:15:57;101700.95;;;-0.41;78.53
75555;BME280;66087;53.126;17.960;2024-03-08T07:18:32;101701.48;;;-0.33;78.63
75555;BME280;66087;53.126;17.960;2024-03-08T07:21:07;101694.95;;;-0.29;78.90
75555;BME280;66087;53.126;17.960;2024-03-08T07:23:34;101695.80;;;-0.25;78.81
75555;BME280;66087;53.126;17.960;2024-03-08T07:26:28;101696.53;;;-0.19;78.56
75555;BME280;66087;53.126;17.960;2024-03-08T07:28:57;101696.14;;;-0.09;78.36
75555;BME280;66087;53.126;17.960;2024-03-08T07:31:25;101697.34;;;-0.00;78.24
75555;BME280;66087;53.126;17.960;2024-03-08T07:34:11;101696.56;;;0.10;78.23
75555;BME280;66087;53.126;17.960;2024-03-08T07:36:39;101696.02;;;0.16;78.17
75555;BME280;66087;53.126;17.960;2024-03-08T07:39:10;101694.95;;;0.23;78.09
75555;BME280;66087;53.126;17.960;2024-03-08T07:41:38;101695.14;;;0.30;78.19
75555;BME280;66087;53.126;17.960;2024-03-08T07:44:10;101694.20;;;0.38;77.96
75555;BME280;66087;53.126;17.960;2024-03-08T07:46:37;101688.48;;;0.47;77.78
75555;BME280;66087;53.126;17.960;2024-03-08T07:49:06;101682.95;;;0.55;77.97
75555;BME280;66087;53.126;17.960;2024-03-08T07:51:34;101683.98;;;0.61;77.92
75555;BME280;66087;53.126;17.960;2024-03-08T07:54:01;101677.05;;;0.69;77.95
75555;BME280;66087;53.126;17.960;2024-03-08T07:56:31;101678.21;;;0.76;78.02
75555;BME280;66087;53.126;17.960;2024-03-08T07:58:58;101681.59;;;0.84;77.88
75555;BME280;66087;53.126;17.960;2024-03-08T08:01:26;101680.17;;;0.91;77.49
75555;BME280;66087;53.126;17.960;2024-03-08T08:03:56;101677.52;;;0.97;77.29
75555;BME280;66087;53.126;17.960;2024-03-08T08:06:23;101676.17;;;1.07;77.19
75555;BME280;66087;53.126;17.960;2024-03-08T08:08:50;101677.00;;;1.18;77.09
75555;BME280;66087;53.126;17.960;2024-03-08T08:11:19;101673.27;;;1.29;77.04
75555;BME280;66087;53.126;17.960;2024-03-08T08:13:46;101667.75;;;1.38;76.93
75555;BME280;66087;53.126;17.960;2024-03-08T08:16:13;101666.70;;;1.48;76.90
75555;BME280;66087;53.126;17.960;2024-03-08T08:18:41;101669.77;;;1.58;77.01
75555;BME280;66087;53.126;17.960;2024-03-08T08:21:09;101667.55;;;1.68;76.80
75555;BME280;66087;53.126;17.960;2024-03-08T08:23:37;101663.52;;;1.80;76.74
75555;BME280;66087;53.126;17.960;2024-03-08T08:26:05;101662.08;;;1.88;76.53
75555;BME280;66087;53.126;17.960;2024-03-08T08:28:34;101666.54;;;2.01;76.50
75555;BME280;66087;53.126;17.960;2024-03-08T08:31:01;101663.11;;;2.09;76.43
75555;BME280;66087;53.126;17.960;2024-03-08T08:33:30;101661.21;;;2.18;76.30
75555;BME280;66087;53.126;17.960;2024-03-08T08:35:57;101662.02;;;2.28;76.22
75555;BME280;66087;53.126;17.960;2024-03-08T08:38:24;101660.77;;;2.35;76.13
75555;BME280;66087;53.126;17.960;2024-03-08T08:40:56;101656.93;;;2.45;75.96
75555;BME280;66087;53.126;17.960;2024-03-08T08:43:26;101656.11;;;2.54;75.78
75555;BME280;66087;53.126;17.960;2024-03-08T08:45:54;101651.73;;;2.63;75.72
75555;BME280;66087;53.126;17.960;2024-03-08T08:48:26;101650.91;;;2.72;75.42
75555;BME280;66087;53.126;17.960;2024-03-08T08:51:24;101653.52;;;2.81;75.38
75555;BME280;66087;53.126;17.960;2024-03-08T08:53:57;101655.42;;;2.92;75.31
75555;BME280;66087;53.126;17.960;2024-03-08T08:56:24;101651.11;;;3.03;75.16
75555;BME280;66087;53.126;17.960;2024-03-08T08:59:05;101651.55;;;3.13;74.85
75555;BME280;66087;53.126;17.960;2024-03-08T09:01:33;101649.35;;;3.23;74.64
75555;BME280;66087;53.126;17.960;2024-03-08T09:04:00;101647.73;;;3.35;74.59
75555;BME280;66087;53.126;17.960;2024-03-08T09:06:27;101644.77;;;3.45;74.30
75555;BME280;66087;53.126;17.960;2024-03-08T09:08:54;101641.59;;;3.56;74.32
75555;BME280;66087;53.126;17.960;2024-03-08T09:11:22;101634.46;;;3.62;73.88
75555;BME280;66087;53.126;17.960;2024-03-08T09:13:49;101638.77;;;3.74;73.67
75555;BME280;66087;53.126;17.960;2024-03-08T09:16:17;101637.34;;;3.83;73.38
75555;BME280;66087;53.126;17.960;2024-03-08T09:19:04;101640.45;;;3.91;73.16
75555;BME280;66087;53.126;17.960;2024-03-08T09:21:40;101636.60;;;4.02;73.00
75555;BME280;66087;53.126;17.960;2024-03-08T09:24:15;101637.80;;;4.11;72.65
75555;BME280;66087;53.126;17.960;2024-03-08T09:26:48;101640.63;;;4.18;71.62
75555;BME280;66087;53.126;17.960;2024-03-08T09:29:17;101640.34;;;4.24;70.72
75555;BME280;66087;53.126;17.960;2024-03-08T09:31:43;101628.70;;;4.27;71.31
75555;BME280;66087;53.126;17.960;2024-03-08T09:34:13;101638.28;;;4.41;71.12
75555;BME280;66087;53.126;17.960;2024-03-08T09:36:44;101632.23;;;4.48;70.50
75555;BME280;66087;53.126;17.960;2024-03-08T09:39:12;101635.33;;;4.57;70.36
75555;BME280;66087;53.126;17.960;2024-03-08T09:41:44;101628.91;;;4.65;70.25
75555;BME280;66087;53.126;17.960;2024-03-08T09:44:16;101628.61;;;4.73;69.77
75555;BME280;66087;53.126;17.960;2024-03-08T09:46:46;101627.43;;;4.81;69.74
75555;BME280;66087;53.126;17.960;2024-03-08T09:49:14;101627.69;;;4.87;69.66
75555;BME280;66087;53.126;17.960;2024-03-08T09:51:42;101623.05;;;4.96;69.12
75555;BME280;66087;53.126;17.960;2024-03-08T09:54:10;101622.85;;;5.03;68.89
75555;BME280;66087;53.126;17.960;2024-03-08T09:56:40;101619.50;;;5.08;68.61
75555;BME280;66087;53.126;17.960;2024-03-08T09:59:10;101615.14;;;5.16;68.25
75555;BME280;66087;53.126;17.960;2024-03-08T10:01:57;101613.59;;;5.24;67.80
75555;BME280;66087;53.126;17.960;2024-03-08T10:04:26;101608.77;;;5.32;67.31
75555;BME280;66087;53.126;17.960;2024-03-08T10:06:55;101604.55;;;5.39;67.50
75555;BME280;66087;53.126;17.960;2024-03-08T10:09:23;101607.55;;;5.48;67.65
75555;BME280;66087;53.126;17.960;2024-03-08T10:11:56;101608.25;;;5.56;66.94
75555;BME280;66087;53.126;17.960;2024-03-08T10:14:25;101602.55;;;5.62;66.19
75555;BME280;66087;53.126;17.960;2024-03-08T10:17:04;101601.05;;;5.68;62.35
75555;BME280;66087;53.126;17.960;2024-03-08T10:19:32;101598.91;;;5.73;64.96
75555;BME280;66087;53.126;17.960;2024-03-08T10:22:27;101599.09;;;5.80;65.33
75555;BME280;66087;53.126;17.960;2024-03-08T10:30:05;101591.31;;;6.12;64.42
75555;BME280;66087;53.126;17.960;2024-03-08T10:32:32;101595.35;;;6.21;64.76
75555;BME280;66087;53.126;17.960;2024-03-08T10:35:00;101592.02;;;6.28;64.69
75555;BME280;66087;53.126;17.960;2024-03-08T10:37:28;101593.21;;;6.38;64.28
75555;BME280;66087;53.126;17.960;2024-03-08T10:40:02;101587.88;;;6.46;61.70
75555;BME280;66087;53.126;17.960;2024-03-08T10:42:41;101585.12;;;6.51;61.75
75555;BME280;66087;53.126;17.960;2024-03-08T10:45:31;101582.09;;;6.54;62.26
75555;BME280;66087;53.126;17.960;2024-03-08T10:48:22;101587.02;;;6.61;62.58
75555;BME280;66087;53.126;17.960;2024-03-08T10:50:55;101586.22;;;6.64;61.86
75555;BME280;66087;53.126;17.960;2024-03-08T10:53:27;101586.71;;;6.71;61.20
75555;BME280;66087;53.126;17.960;2024-03-08T10:55:57;101587.55;;;6.78;61.31
75555;BME280;66087;53.126;17.960;2024-03-08T10:58:27;101584.20;;;6.85;61.31
75555;BME280;66087;53.126;17.960;2024-03-08T11:00:55;101573.86;;;6.94;60.02
75555;BME280;66087;53.126;17.960;2024-03-08T11:03:44;101573.65;;;7.01;57.11
75555;BME280;66087;53.126;17.960;2024-03-08T11:06:29;101573.51;;;7.07;56.83
75555;BME280;66087;53.126;17.960;2024-03-08T11:08:56;101567.75;;;7.13;56.75
75555;BME280;66087;53.126;17.960;2024-03-08T11:11:26;101561.94;;;7.17;56.24
75555;BME280;66087;53.126;17.960;2024-03-08T11:13:57;101564.48;;;7.26;58.19
75555;BME280;66087;53.126;17.960;2024-03-08T11:16:40;101565.41;;;7.37;58.40
75555;BME280;66087;53.126;17.960;2024-03-08T11:19:23;101561.20;;;7.44;56.79
75555;BME280;66087;53.126;17.960;2024-03-08T11:22:01;101554.85;;;7.49;57.72
75555;BME280;66087;53.126;17.960;2024-03-08T11:24:39;101558.09;;;7.60;56.67
75555;BME280;66087;53.126;17.960;2024-03-08T11:27:08;101555.36;;;7.64;57.05
75555;BME280;66087;53.126;17.960;2024-03-08T11:29:36;101550.77;;;7.73;58.20
75555;BME280;66087;53.126;17.960;2024-03-08T11:32:19;101547.52;;;7.85;58.69
75555;BME280;66087;53.126;17.960;2024-03-08T11:34:50;101546.27;;;7.96;58.31
75555;BME280;66087;53.126;17.960;2024-03-08T11:37:20;101546.38;;;7.99;57.64
75555;BME280;66087;53.126;17.960;2024-03-08T11:39:48;101541.84;;;8.07;58.26
75555;BME280;66087;53.126;17.960;2024-03-08T11:42:17;101540.08;;;8.15;58.17
75555;BME280;66087;53.126;17.960;2024-03-08T11:44:46;101532.27;;;8.24;56.92
75555;BME280;66087;53.126;17.960;2024-03-08T11:47:15;101528.41;;;8.29;56.63
75555;BME280;66087;53.126;17.960;2024-03-08T11:49:44;101526.13;;;8.33;56.57
75555;BME280;66087;53.126;17.960;2024-03-08T11:52:16;101518.36;;;8.38;54.73
75555;BME280;66087;53.126;17.960;2024-03-08T11:54:52;101515.17;;;8.45;55.71
75555;BME280;66087;53.126;17.960;2024-03-08T11:57:22;101513.60;;;8.59;56.31
75555;BME280;66087;53.126;17.960;2024-03-08T11:59:53;101508.48;;;8.67;56.60
75555;BME280;66087;53.126;17.960;2024-03-08T12:02:23;101492.55;;;8.69;54.17
75555;BME280;66087;53.126;17.960;2024-03-08T12:04:59;101485.77;;;8.72;53.22
75555;BME280;66087;53.126;17.960;2024-03-08T12:07:30;101497.36;;;8.89;54.98
75555;BME280;66087;53.126;17.960;2024-03-08T12:12:52;101491.16;;;9.11;53.78
75555;BME280;66087;53.126;17.960;2024-03-08T12:15:23;101489.06;;;9.21;51.98
75555;BME280;66087;53.126;17.960;2024-03-08T12:17:51;101488.48;;;9.28;53.45
75555;BME280;66087;53.126;17.960;2024-03-08T12:20:32;101486.89;;;9.35;50.57
75555;BME280;66087;53.126;17.960;2024-03-08T12:22:59;101483.84;;;9.44;51.79
75555;BME280;66087;53.126;17.960;2024-03-08T12:25:30;101483.96;;;9.53;51.29
75555;BME280;66087;53.126;17.960;2024-03-08T12:28:10;101481.77;;;9.67;52.10
75555;BME280;66087;53.126;17.960;2024-03-08T12:30:49;101482.92;;;9.80;52.05
75555;BME280;66087;53.126;17.960;2024-03-08T12:33:21;101477.84;;;9.92;50.61
75555;BME280;66087;53.126;17.960;2024-03-08T12:36:10;101477.17;;;10.06;51.34
75555;BME280;66087;53.126;17.960;2024-03-08T12:38:44;101473.61;;;10.29;52.06
75555;BME280;66087;53.126;17.960;2024-03-08T12:41:18;101471.94;;;10.65;52.21
75555;BME280;66087;53.126;17.960;2024-03-08T12:43:47;101472.08;;;10.80;51.45
75555;BME280;66087;53.126;17.960;2024-03-08T12:46:17;101468.66;;;10.86;48.70
75555;BME280;66087;53.126;17.960;2024-03-08T12:48:48;101464.59;;;11.05;49.18
75555;BME280;66087;53.126;17.960;2024-03-08T12:51:15;101465.67;;;11.38;49.87
75555;BME280;66087;53.126;17.960;2024-03-08T12:53:46;101461.55;;;11.62;47.77
75555;BME280;66087;53.126;17.960;2024-03-08T12:56:21;101456.02;;;11.62;47.11
75555;BME280;66087;53.126;17.960;2024-03-08T12:58:54;101456.05;;;11.56;47.87
75555;BME280;66087;53.126;17.960;2024-03-08T13:01:21;101452.70;;;11.57;50.16
75555;BME280;66087;53.126;17.960;2024-03-08T13:03:49;101447.48;;;11.58;49.77